Time;durP1;ratioP1;P1;durP2;ratioP2;P2;SDS_P1;SDS_P2;PMS_P1;PMS_P2;Temp;Humidity;BMP_temperature;BMP_pressure;BME280_temperature;BME280_humidity;BME280_pressure;Samples;Min_cycle;Max_cycle;Signal;HPM_P1;HPM_P2
2024/01/30 00:01:02;;;;;;;7.07;6.03;;;;;;;5.94;100.00;102708.16;6170453;28;20229;-70
2024/01/30 00:04:23;;;;;;;7.53;6.70;;;;;;;5.86;100.00;102715.59;6187154;28;20222;-70
2024/01/30 00:07:44;;;;;;;6.40;5.80;;;;;;;5.84;100.00;102714.78;6169209;28;20241;-70
2024/01/30 00:11:05;;;;;;;6.80;5.57;;;;;;;5.88;100.00;102720.91;6171208;28;20238;-70
2024/01/30 00:14:28;;;;;;;7.83;5.50;;;;;;;5.78;100.00;102722.19;6181027;28;20229;-71
2024/01/30 00:17:48;;;;;;;7.03;6.13;;;;;;;5.79;100.00;102708.72;6163346;28;20699;-69
2024/01/30 00:21:09;;;;;;;6.50;5.73;;;;;;;5.71;100.00;102708.16;6168373;28;20226;-70
2024/01/30 00:24:30;;;;;;;6.33;5.77;;;;;;;5.88;100.00;102708.41;6162213;28;20283;-69
2024/01/30 00:27:51;;;;;;;7.07;5.57;;;;;;;5.97;100.00;102704.47;6169817;28;20230;-70
2024/01/30 00:31:14;;;;;;;7.13;5.57;;;;;;;5.92;100.00;102701.13;6165366;28;20242;-70
2024/01/30 00:34:35;;;;;;;6.37;5.47;;;;;;;5.75;100.00;102691.06;6172229;28;20230;-70
2024/01/30 00:37:57;;;;;;;6.97;5.70;;;;;;;5.53;100.00;102684.78;6173623;28;20320;-69
2024/01/30 00:41:19;;;;;;;6.27;5.67;;;;;;;5.51;100.00;102689.31;6172708;28;20238;-70
2024/01/30 00:44:40;;;;;;;5.80;5.27;;;;;;;5.52;100.00;102691.09;6177171;28;20226;-70
2024/01/30 00:48:02;;;;;;;7.60;6.07;;;;;;;5.68;100.00;102692.22;6161328;28;20261;-69
2024/01/30 00:51:23;;;;;;;6.83;6.13;;;;;;;5.53;100.00;102684.78;6170156;28;20294;-70
2024/01/30 00:54:44;;;;;;;8.77;5.47;;;;;;;5.59;100.00;102687.25;6176070;28;20241;-69
2024/01/30 00:58:05;;;;;;;6.43;5.83;;;;;;;5.69;100.00;102685.94;6172190;28;21036;-69
2024/01/30 01:01:26;;;;;;;7.10;6.10;;;;;;;5.60;100.00;102692.53;6161672;28;20225;-69
2024/01/30 01:04:48;;;;;;;6.77;5.80;;;;;;;5.67;100.00;102679.78;6175568;28;20256;-69
2024/01/30 01:08:09;;;;;;;6.67;5.93;;;;;;;5.69;100.00;102685.94;6170932;28;20567;-69
2024/01/30 01:11:30;;;;;;;7.17;5.23;;;;;;;5.60;100.00;102691.66;6168639;28;20258;-69
2024/01/30 01:14:51;;;;;;;6.03;5.43;;;;;;;5.72;100.00;102699.19;6174929;28;20233;-69
2024/01/30 01:18:11;;;;;;;5.93;5.17;;;;;;;5.83;100.00;102696.09;6175622;28;20234;-69
2024/01/30 01:21:34;;;;;;;6.70;6.10;;;;;;;5.69;100.00;102699.31;6176900;28;20218;-69
2024/01/30 01:24:55;;;;;;;5.90;5.30;;;;;;;5.77;100.00;102701.69;6178557;28;20230;-69
2024/01/30 01:28:16;;;;;;;6.43;5.83;;;;;;;5.83;100.00;102701.44;6187042;28;20324;-69
2024/01/30 01:31:39;;;;;;;6.77;6.17;;;;;;;5.91;100.00;102708.25;6161728;28;20777;-69
2024/01/30 01:35:00;;;;;;;6.70;6.10;;;;;;;5.91;100.00;102700.22;6166807;28;20254;-69
2024/01/30 01:38:23;;;;;;;5.87;5.37;;;;;;;5.89;100.00;102693.19;6172570;28;20322;-69
2024/01/30 01:41:43;;;;;;;9.33;6.47;;;;;;;5.92;100.00;102687.72;6161994;28;20237;-69
2024/01/30 01:45:05;;;;;;;7.00;5.90;;;;;;;5.83;100.00;102696.97;6164914;28;20230;-70
2024/01/30 01:48:27;;;;;;;6.30;5.70;;;;;;;5.74;100.00;102686.63;6135251;28;20222;-69
2024/01/30 01:51:49;;;;;;;8.03;6.07;;;;;;;5.81;100.00;102679.22;6144260;28;20356;-69
2024/01/30 01:55:12;;;;;;;6.17;5.43;;;;;;;5.82;100.00;102679.16;6172176;28;20226;-69
2024/01/30 01:58:33;;;;;;;6.10;5.40;;;;;;;5.75;100.00;102679.47;6145821;28;20308;-69
2024/01/30 02:01:56;;;;;;;6.57;5.23;;;;;;;5.79;100.00;102679.28;6163827;28;20538;-69
2024/01/30 02:05:17;;;;;;;7.40;6.00;;;;;;;5.65;100.00;102676.31;6169180;28;20230;-70
2024/01/30 02:08:39;;;;;;;8.00;6.20;;;;;;;5.53;100.00;102674.09;6177065;28;20234;-70
2024/01/30 02:12:01;;;;;;;7.37;6.47;;;;;;;5.57;100.00;102662.31;6173903;28;20237;-69
2024/01/30 02:15:22;;;;;;;8.30;5.87;;;;;;;5.73;100.00;102652.78;6172630;28;20234;-69
2024/01/30 02:18:45;;;;;;;7.07;5.97;;;;;;;5.54;100.00;102651.78;6173031;28;20286;-69
2024/01/30 02:22:08;;;;;;;7.10;5.30;;;;;;;5.53;100.00;102642.88;6164471;28;21492;-68
2024/01/30 02:25:44;;;;;;;5.23;4.83;;;;;;;5.53;100.00;102637.53;6169958;28;20249;-69
2024/01/30 02:29:05;;;;;;;7.03;5.30;;;;;;;5.70;100.00;102634.16;6177585;28;20238;-69
2024/01/30 02:32:26;;;;;;;6.90;6.27;;;;;;;5.54;100.00;102639.28;6132992;28;20241;-69
2024/01/30 02:35:47;;;;;;;7.80;6.40;;;;;;;5.58;100.00;102623.97;6163518;28;20274;-69
2024/01/30 02:39:09;;;;;;;7.03;6.33;;;;;;;5.49;100.00;102627.00;6174357;28;20242;-69
2024/01/30 02:42:30;;;;;;;6.03;4.90;;;;;;;5.49;100.00;102635.91;6166233;28;20261;-69
2024/01/30 02:45:51;;;;;;;7.97;6.80;;;;;;;5.57;100.00;102635.56;6167033;28;20246;-69
2024/01/30 02:49:12;;;;;;;6.63;6.03;;;;;;;5.64;100.00;102621.91;6168360;28;20238;-70
2024/01/30 02:52:33;;;;;;;10.20;6.20;;;;;;;5.71;100.00;102619.00;6163835;28;20221;-69
2024/01/30 02:55:55;;;;;;;6.40;5.73;;;;;;;5.79;100.00;102623.09;6157533;28;20234;-69
2024/01/30 02:59:16;;;;;;;7.03;5.60;;;;;;;5.52;100.00;102618.88;6171457;28;20601;-69
2024/01/30 03:02:37;;;;;;;5.97;5.37;;;;;;;5.34;100.00;102624.94;6152731;28;20237;-69
2024/01/30 03:05:58;;;;;;;6.80;6.10;;;;;;;5.30;100.00;102620.66;6166423;28;20229;-69
2024/01/30 03:09:19;;;;;;;7.43;6.30;;;;;;;5.39;100.00;102622.94;6175232;28;20238;-69
2024/01/30 03:12:41;;;;;;;7.67;5.70;;;;;;;5.48;100.00;102620.81;6163172;28;20822;-69
2024/01/30 03:16:02;;;;;;;6.33;5.80;;;;;;;5.36;100.00;102617.75;6161100;28;20229;-68
2024/01/30 03:19:23;;;;;;;7.37;5.70;;;;;;;5.28;100.00;102611.78;6170827;28;20230;-70
2024/01/30 03:22:44;;;;;;;8.10;5.90;;;;;;;5.14;100.00;102603.44;6163183;28;20225;-69
2024/01/30 03:26:06;;;;;;;8.83;6.73;;;;;;;5.23;100.00;102606.66;6170199;28;20301;-69
2024/01/30 03:29:28;;;;;;;9.37;5.63;;;;;;;5.23;100.00;102598.63;6141911;28;20221;-70
2024/01/30 03:32:50;;;;;;;8.60;5.90;;;;;;;5.27;100.00;102608.28;6165989;28;20818;-69
2024/01/30 03:36:11;;;;;;;6.87;6.17;;;;;;;5.21;100.00;102597.81;6164612;28;20619;-69
2024/01/30 03:39:32;;;;;;;7.90;6.40;;;;;;;5.34;100.00;102607.09;6168571;28;20607;-70
2024/01/30 03:42:53;;;;;;;9.50;6.10;;;;;;;5.20;100.00;102608.53;6163531;28;20237;-70
2024/01/30 03:46:16;;;;;;;6.57;6.03;;;;;;;5.17;100.00;102595.31;6166704;28;20940;-69
2024/01/30 03:49:37;;;;;;;10.40;7.23;;;;;;;5.23;100.00;102603.09;6168896;28;20583;-69
2024/01/30 03:52:58;;;;;;;7.57;5.87;;;;;;;5.13;100.00;102594.53;6166434;28;20238;-69
2024/01/30 03:56:19;;;;;;;6.60;5.87;;;;;;;5.16;100.00;102591.78;6168450;28;20233;-69
2024/01/30 03:59:42;;;;;;;7.60;6.90;;;;;;;5.03;100.00;102574.47;6180792;28;20539;-69
2024/01/30 04:03:05;;;;;;;7.17;6.47;;;;;;;4.86;100.00;102574.22;6157645;28;20229;-69
2024/01/30 04:06:27;;;;;;;7.43;6.37;;;;;;;4.80;100.00;102575.34;6174214;28;20521;-69
2024/01/30 04:09:48;;;;;;;7.17;6.43;;;;;;;4.93;100.00;102588.22;6170924;28;20271;-69
2024/01/30 04:13:09;;;;;;;7.50;6.50;;;;;;;4.97;100.00;102585.38;6168686;28;20285;-69
2024/01/30 04:16:30;;;;;;;9.33;6.57;;;;;;;4.85;100.00;102581.41;6166764;28;20600;-69
2024/01/30 04:19:52;;;;;;;7.63;6.93;;;;;;;4.89;100.00;102579.47;6177183;28;20310;-69
2024/01/30 04:23:13;;;;;;;6.70;6.10;;;;;;;5.03;100.00;102585.16;6168372;28;20234;-70
2024/01/30 04:26:34;;;;;;;8.93;6.30;;;;;;;4.97;100.00;102590.72;6165478;28;20238;-69
2024/01/30 04:29:55;;;;;;;6.90;6.23;;;;;;;4.94;100.00;102589.97;6170027;28;20225;-68
2024/01/30 04:33:18;;;;;;;10.67;7.20;;;;;;;4.90;100.00;102585.69;6178370;28;20234;-69
2024/01/30 04:36:40;;;;;;;7.63;6.83;;;;;;;4.96;100.00;102593.47;6166110;28;20225;-69
2024/01/30 04:40:01;;;;;;;7.90;7.00;;;;;;;4.83;100.00;102591.25;6181397;28;20249;-70
2024/01/30 04:43:22;;;;;;;8.27;7.47;;;;;;;4.77;100.00;102598.63;6176306;28;20249;-68
2024/01/30 04:46:43;;;;;;;8.97;6.80;;;;;;;4.73;100.00;102594.34;6170318;28;20233;-70
2024/01/30 04:50:05;;;;;;;8.47;7.23;;;;;;;4.85;100.00;102596.53;6171070;28;20230;-69
2024/01/30 04:53:27;;;;;;;7.10;6.40;;;;;;;4.80;100.00;102594.03;6149160;28;20328;-70
2024/01/30 04:56:48;;;;;;;8.00;7.23;;;;;;;4.88;100.00;102591.94;6167405;28;20536;-70
2024/01/30 05:00:10;;;;;;;11.37;8.17;;;;;;;4.75;100.00;102592.47;6169281;28;20234;-69
2024/01/30 05:03:34;;;;;;;12.33;8.70;;;;;;;4.92;100.00;102594.53;6164619;28;20222;-70
2024/01/30 05:06:55;;;;;;;8.43;7.63;;;;;;;4.75;100.00;102596.03;6161751;28;20242;-69
2024/01/30 05:10:18;;;;;;;8.40;7.63;;;;;;;4.94;100.00;102595.31;6170102;28;20233;-69
2024/01/30 05:13:38;;;;;;;8.17;7.33;;;;;;;4.75;100.00;102595.16;6172184;28;20326;-70
2024/01/30 05:16:59;;;;;;;10.80;7.17;;;;;;;4.82;100.00;102591.31;6166913;28;20233;-70
2024/01/30 05:20:20;;;;;;;9.63;8.73;;;;;;;4.65;100.00;102583.91;6170749;28;20234;-68
2024/01/30 05:23:44;;;;;;;8.43;7.47;;;;;;;4.76;100.00;102579.06;6167711;28;20237;-70
2024/01/30 05:27:07;;;;;;;8.97;8.17;;;;;;;4.74;100.00;102598.72;6163592;28;20333;-69
2024/01/30 05:30:28;;;;;;;8.77;7.83;;;;;;;4.75;100.00;102592.47;6179934;28;20320;-69
2024/01/30 05:33:49;;;;;;;14.23;8.87;;;;;;;4.98;100.00;102589.81;6185122;28;20256;-69
2024/01/30 05:37:14;;;;;;;8.80;8.00;;;;;;;4.93;100.00;102590.91;6182145;28;20269;-70
2024/01/30 05:40:35;;;;;;;9.40;7.47;;;;;;;4.97;100.00;102585.38;6175583;28;20230;-69
2024/01/30 05:43:57;;;;;;;8.17;7.37;;;;;;;4.88;100.00;102585.75;6159257;28;20230;-69
2024/01/30 05:47:18;;;;;;;9.23;7.60;;;;;;;5.05;100.00;102580.63;6169364;28;20320;-69
2024/01/30 05:50:39;;;;;;;8.57;7.27;;;;;;;5.21;100.00;102572.88;6170709;28;20246;-68
2024/01/30 05:54:03;;;;;;;9.47;8.47;;;;;;;4.94;100.00;102580.19;6178106;28;20229;-67
2024/01/30 05:57:24;;;;;;;14.43;8.27;;;;;;;4.82;100.00;102570.81;6167020;28;20230;-69
2024/01/30 06:00:46;;;;;;;12.23;7.33;;;;;;;4.98;100.00;102568.44;6165271;28;20246;-67
2024/01/30 06:04:06;;;;;;;10.90;9.77;;;;;;;4.71;100.00;102577.50;6183789;28;20675;-68
2024/01/30 06:07:27;;;;;;;10.77;9.27;;;;;;;4.54;100.00;102575.44;6175692;28;20320;-68
2024/01/30 06:10:49;;;;;;;8.50;7.57;;;;;;;4.71;100.00;102570.34;6172095;28;20237;-68
2024/01/30 06:14:10;;;;;;;12.03;8.53;;;;;;;4.52;100.00;102576.44;6160017;28;20643;-68
2024/01/30 06:17:32;;;;;;;9.73;8.30;;;;;;;4.60;100.00;102563.66;6142766;28;20234;-69
2024/01/30 06:20:53;;;;;;;8.83;8.00;;;;;;;4.66;100.00;102558.09;6159560;28;20257;-68
2024/01/30 06:24:14;;;;;;;10.00;8.07;;;;;;;4.77;100.00;102554.09;6182982;28;20230;-68
2024/01/30 06:27:35;;;;;;;9.40;8.33;;;;;;;4.67;100.00;102558.03;6175374;28;20237;-68
2024/01/30 06:30:55;;;;;;;10.60;9.37;;;;;;;4.66;100.00;102545.63;6167187;28;20598;-68
2024/01/30 06:34:18;;;;;;;9.03;8.13;;;;;;;4.74;100.00;102548.88;6184251;28;20233;-68
2024/01/30 06:37:39;;;;;;;10.30;8.00;;;;;;;4.77;100.00;102547.88;6168549;28;20225;-68
2024/01/30 06:41:00;;;;;;;8.73;7.10;;;;;;;4.73;100.00;102540.91;6166297;28;20232;-69
2024/01/30 06:44:21;;;;;;;10.27;9.27;;;;;;;4.74;100.00;102539.97;6182277;28;20240;-69
2024/01/30 06:47:42;;;;;;;10.20;7.90;;;;;;;4.64;100.00;102539.47;6161459;28;20261;-67
2024/01/30 06:51:04;;;;;;;12.20;7.73;;;;;;;4.68;100.00;102543.75;6161551;28;20312;-67
2024/01/30 06:54:25;;;;;;;9.30;8.07;;;;;;;4.81;100.00;102542.38;6184601;28;20233;-67
2024/01/30 06:57:46;;;;;;;8.87;7.67;;;;;;;4.89;100.00;102550.06;6178128;28;20238;-69
2024/01/30 07:01:07;;;;;;;11.40;8.63;;;;;;;4.81;100.00;102545.03;6165653;28;20238;-69
2024/01/30 07:04:28;;;;;;;12.77;9.17;;;;;;;5.26;100.00;102539.69;6155524;28;20238;-68
2024/01/30 07:07:50;;;;;;;10.80;9.03;;;;;;;5.03;100.00;102542.38;6169249;28;20234;-69
2024/01/30 07:11:12;;;;;;;11.13;9.77;;;;;;;5.00;100.00;102545.19;6179361;28;20230;-70
2024/01/30 07:14:33;;;;;;;12.93;9.80;;;;;;;5.00;100.00;102538.97;6179367;28;20504;-68
2024/01/30 07:17:54;;;;;;;12.00;9.10;;;;;;;4.90;100.00;102537.59;6169696;28;20238;-69
2024/01/30 07:21:14;;;;;;;8.90;8.10;;;;;;;4.76;100.00;102540.78;6175865;28;20318;-68
2024/01/30 07:24:37;;;;;;;9.30;8.40;;;;;;;4.99;100.00;102546.13;6169635;28;20234;-68
2024/01/30 07:27:57;;;;;;;10.07;9.07;;;;;;;5.18;100.00;102536.44;6172909;28;20226;-68
2024/01/30 07:31:20;;;;;;;11.07;9.97;;;;;;;5.08;100.00;102528.84;6162622;28;20251;-68
2024/01/30 07:34:41;;;;;;;10.13;8.77;;;;;;;4.90;100.00;102529.59;6179996;28;20233;-68
2024/01/30 07:38:02;;;;;;;10.70;9.50;;;;;;;4.86;100.00;102531.47;6171351;28;20237;-68
2024/01/30 07:41:25;;;;;;;10.67;9.07;;;;;;;4.90;100.00;102535.81;6170250;28;20233;-69
2024/01/30 07:44:45;;;;;;;14.83;8.03;;;;;;;4.93;100.00;102542.81;6172567;28;20244;-68
2024/01/30 07:48:07;;;;;;;14.83;9.87;;;;;;;4.93;100.00;102543.69;6172188;28;20230;-68
2024/01/30 07:51:29;;;;;;;10.73;8.60;;;;;;;5.18;100.00;102538.25;6177164;28;20599;-68
2024/01/30 07:59:24;;;;;;;10.03;8.07;;;;;;;5.13;100.00;102534.91;6125099;28;20570;-69
2024/01/30 08:02:45;;;;;;;9.73;8.83;;;;;;;5.29;100.00;102542.25;6170532;28;20607;-69
2024/01/30 08:06:06;;;;;;;9.40;8.47;;;;;;;5.15;100.00;102538.38;6180758;28;20316;-68
2024/01/30 08:09:27;;;;;;;9.50;8.63;;;;;;;5.24;100.00;102533.53;6186909;28;20237;-68
2024/01/30 08:12:48;;;;;;;12.57;9.27;;;;;;;5.23;100.00;102533.59;6181107;28;20324;-68
2024/01/30 08:16:10;;;;;;;10.37;9.37;;;;;;;5.45;100.00;102534.44;6172132;28;20225;-68
2024/01/30 08:19:31;;;;;;;13.80;11.10;;;;;;;5.53;100.00;102525.19;6191774;28;20876;-68
2024/01/30 08:22:52;;;;;;;10.10;9.10;;;;;;;5.42;100.00;102529.25;6188277;28;20240;-68
2024/01/30 08:26:13;;;;;;;12.23;8.77;;;;;;;5.56;100.00;102540.25;6185958;28;20401;-68
2024/01/30 08:29:34;;;;;;;15.13;10.37;;;;;;;5.56;100.00;102537.56;6179257;28;20234;-69
2024/01/30 08:32:56;;;;;;;10.57;9.40;;;;;;;5.71;100.00;102534.25;6161180;28;20261;-68
2024/01/30 08:36:18;;;;;;;12.13;10.10;;;;;;;5.71;100.00;102525.34;6173143;28;20230;-67
2024/01/30 08:39:39;;;;;;;12.97;10.73;;;;;;;5.81;100.00;102516.00;6186725;28;20667;-68
2024/01/30 08:42:59;;;;;;;10.63;9.53;;;;;;;5.79;100.00;102524.09;6196084;28;20233;-69
2024/01/30 08:46:20;;;;;;;13.27;9.90;;;;;;;5.89;100.00;102519.25;6176273;28;20249;-67
2024/01/30 08:49:44;;;;;;;14.43;9.77;;;;;;;6.16;100.00;102510.00;6191994;28;20319;-69
2024/01/30 08:53:05;;;;;;;12.60;9.33;;;;;;;6.12;100.00;102505.72;6172788;28;20557;-69
2024/01/30 08:56:25;;;;;;;14.33;10.20;;;;;;;6.50;100.00;102491.50;6182650;28;20320;-69
2024/01/30 08:59:47;;;;;;;12.10;10.07;;;;;;;6.87;100.00;102479.91;6186547;28;20308;-69
2024/01/30 09:03:08;;;;;;;10.57;9.47;;;;;;;7.50;100.00;102471.41;6173839;28;20226;-69
2024/01/30 09:06:31;;;;;;;11.43;10.30;;;;;;;7.48;100.00;102470.59;6178123;28;20494;-68
2024/01/30 09:09:51;;;;;;;12.43;9.77;;;;;;;8.06;100.00;102477.38;6185995;28;20241;-69
2024/01/30 09:13:12;;;;;;;10.27;9.27;;;;;;;7.39;100.00;102460.31;6190005;28;20258;-69
2024/01/30 09:16:34;;;;;;;11.33;10.13;;;;;;;7.47;100.00;102474.22;6157827;28;20340;-68
2024/01/30 09:19:54;;;;;;;11.37;9.87;;;;;;;8.09;100.00;102481.75;6183401;28;20226;-69
2024/01/30 09:23:18;;;;;;;13.03;10.50;;;;;;;8.15;100.00;102483.22;6177070;28;21300;-69
2024/01/30 09:26:39;;;;;;;14.53;10.30;;;;;;;7.59;100.00;102486.16;6175797;28;20631;-69
2024/01/30 09:30:00;;;;;;;14.07;10.60;;;;;;;7.40;100.00;102496.94;6184990;28;20242;-69
2024/01/30 09:33:21;;;;;;;10.90;9.77;;;;;;;7.19;100.00;102501.56;6176961;28;20312;-69
2024/01/30 09:36:42;;;;;;;17.60;10.33;;;;;;;7.47;100.00;102497.53;6173650;28;20325;-68
2024/01/30 09:40:05;;;;;;;10.30;9.20;;;;;;;7.57;100.00;102504.16;6187139;28;20237;-68
2024/01/30 09:43:29;;;;;;;13.03;9.37;;;;;;;7.47;100.00;102509.09;6174403;28;20234;-69
2024/01/30 09:46:51;;;;;;;10.07;9.07;;;;;;;7.62;100.00;102507.47;6163672;28;20624;-68
2024/01/30 09:50:13;;;;;;;12.73;9.83;;;;;;;7.55;100.00;102508.72;6175483;28;20237;-68
2024/01/30 09:53:34;;;;;;;12.10;11.00;;;;;;;7.56;100.00;102500.59;6176973;28;20608;-68
2024/01/30 09:56:56;;;;;;;12.37;11.13;;;;;;;7.51;100.00;102491.06;6177633;28;20238;-68
2024/01/30 10:00:17;;;;;;;10.93;9.37;;;;;;;7.99;100.00;102493.88;6168389;28;20675;-68
2024/01/30 10:03:38;;;;;;;11.90;10.03;;;;;;;8.58;100.00;102488.91;6182404;28;20245;-69
2024/01/30 10:07:02;;;;;;;12.43;9.80;;;;;;;8.58;100.00;102474.59;6170050;28;20226;-69
2024/01/30 10:10:23;;;;;;;11.33;9.43;;;;;;;9.28;100.00;102476.91;6180393;28;20840;-67
2024/01/30 10:13:46;;;;;;;14.10;9.10;;;;;;;9.22;100.00;102463.81;6183029;28;20613;-68
2024/01/30 10:17:10;;;;;;;8.80;7.93;;;;;;;9.91;100.00;102456.06;6157810;28;20233;-69
2024/01/30 10:20:31;;;;;;;12.03;9.57;;;;;;;10.02;100.00;102458.94;6170163;28;20230;-68
2024/01/30 10:23:52;;;;;;;9.97;9.00;;;;;;;9.57;100.00;102459.91;6180498;28;20902;-69
2024/01/30 10:27:13;;;;;;;10.83;9.73;;;;;;;9.34;100.00;102466.66;6176281;28;20238;-69
2024/01/30 10:30:36;;;;;;;11.70;9.17;;;;;;;9.14;100.00;102471.41;6172996;28;20601;-68
2024/01/30 10:33:57;;;;;;;11.93;10.63;;;;;;;8.96;100.00;102459.91;6178522;28;20590;-69
2024/01/30 10:37:22;;;;;;;10.63;8.60;;;;;;;9.40;100.00;102455.53;6173508;28;20226;-69
2024/01/30 10:40:45;;;;;;;10.10;8.77;;;;;;;9.28;100.00;102455.38;6176039;28;20234;-68
2024/01/30 10:44:10;;;;;;;11.70;9.53;;;;;;;9.30;100.00;102446.25;6165683;28;20800;-69
2024/01/30 10:47:35;;;;;;;10.40;9.20;;;;;;;8.72;100.00;102456.75;6176297;28;20228;-69
2024/01/30 10:50:58;;;;;;;11.23;9.40;;;;;;;8.86;100.00;102450.63;6167973;28;20241;-69
2024/01/30 10:54:20;;;;;;;11.87;10.13;;;;;;;9.29;100.00;102449.00;6184092;28;20225;-69
2024/01/30 10:57:42;;;;;;;10.53;8.43;;;;;;;9.54;100.00;102452.88;6174748;28;20233;-69
2024/01/30 11:01:04;;;;;;;13.53;10.13;;;;;;;9.23;100.00;102444.00;6169796;28;20245;-69
2024/01/30 11:04:26;;;;;;;10.77;9.40;;;;;;;9.13;100.00;102445.50;6183243;28;20225;-70
2024/01/30 11:07:47;;;;;;;9.67;8.40;;;;;;;9.17;100.00;102447.03;6168509;28;20233;-68
2024/01/30 11:11:10;;;;;;;20.20;8.07;;;;;;;9.22;100.00;102448.50;6158172;28;20317;-69
2024/01/30 11:14:31;;;;;;;11.20;9.03;;;;;;;9.18;100.00;102452.31;6193030;28;20606;-68
2024/01/30 11:17:53;;;;;;;11.60;8.53;;;;;;;8.73;100.00;102444.19;6165024;28;20242;-68
2024/01/30 11:21:15;;;;;;;9.07;8.23;;;;;;;8.84;100.00;102447.16;6177104;28;20221;-69
2024/01/30 11:24:40;;;;;;;8.07;7.30;;;;;;;8.64;100.00;102432.13;6181353;28;20249;-69
2024/01/30 11:28:01;;;;;;;9.67;8.70;;;;;;;8.57;100.00;102443.31;6179237;28;20225;-68
2024/01/30 11:31:22;;;;;;;12.57;10.27;;;;;;;8.73;100.00;102441.50;6179646;28;20261;-69
2024/01/30 11:34:43;;;;;;;10.73;8.87;;;;;;;8.73;100.00;102446.88;6179409;28;20341;-69
2024/01/30 11:38:07;;;;;;;9.17;8.17;;;;;;;8.98;100.00;102444.53;6168405;28;20253;-68
2024/01/30 11:41:29;;;;;;;10.67;8.70;;;;;;;8.70;100.00;102439.84;6159121;28;20234;-69
2024/01/30 11:44:50;;;;;;;9.23;8.27;;;;;;;8.71;100.00;102436.22;6187602;28;20690;-69
2024/01/30 11:48:13;;;;;;;11.23;9.03;;;;;;;8.64;100.00;102423.19;6177987;28;20317;-69
2024/01/30 11:51:34;;;;;;;10.50;9.40;;;;;;;8.81;100.00;102436.56;6176350;28;20256;-69
2024/01/30 11:54:56;;;;;;;11.60;9.40;;;;;;;8.77;100.00;102433.19;6190629;28;20244;-69
2024/01/30 11:58:17;;;;;;;13.50;11.17;;;;;;;8.92;100.00;102434.13;6182424;28;20245;-68
2024/01/30 12:01:38;;;;;;;10.30;8.37;;;;;;;8.88;100.00;102440.66;6166733;28;20230;-69
2024/01/30 12:04:59;;;;;;;11.07;10.00;;;;;;;8.87;100.00;102436.22;6186234;28;20260;-69
2024/01/30 12:08:20;;;;;;;10.67;9.33;;;;;;;8.83;100.00;102418.50;6164220;28;20237;-69
2024/01/30 12:11:49;;;;;;;10.57;8.73;;;;;;;8.91;100.00;102432.38;6178226;28;20238;-69
2024/01/30 12:15:11;;;;;;;10.70;8.40;;;;;;;9.03;100.00;102434.41;6183055;28;20226;-69
2024/01/30 12:18:32;;;;;;;11.53;9.13;;;;;;;8.90;100.00;102419.03;6194136;28;20627;-70
2024/01/30 12:21:56;;;;;;;9.40;8.17;;;;;;;8.97;100.00;102423.97;6188812;28;20234;-70
2024/01/30 12:25:18;;;;;;;11.80;9.53;;;;;;;9.01;100.00;102417.44;6181164;28;20238;-69
2024/01/30 12:28:50;;;;;;;13.53;8.93;;;;;;;8.97;100.00;102412.38;6184805;28;20321;-69
2024/01/30 12:32:16;;;;;;;15.50;9.20;;;;;;;8.97;100.00;102409.69;6180345;28;20599;-69
2024/01/30 12:35:37;;;;;;;12.23;9.90;;;;;;;9.10;100.00;102406.16;6157534;28;20229;-68
2024/01/30 12:38:58;;;;;;;11.37;9.33;;;;;;;9.35;100.00;102405.59;6184693;28;20230;-69
2024/01/30 12:42:20;;;;;;;10.10;8.97;;;;;;;9.52;100.00;102410.84;6179072;28;20233;-69
2024/01/30 12:45:43;;;;;;;18.07;10.17;;;;;;;9.48;100.00;102409.28;6167531;28;20233;-69
2024/01/30 12:49:04;;;;;;;15.27;9.40;;;;;;;9.46;100.00;102406.72;6180607;28;20233;-70
2024/01/30 12:52:25;;;;;;;10.27;9.00;;;;;;;9.49;100.00;102401.13;6184569;28;20225;-69
2024/01/30 12:55:46;;;;;;;10.07;7.90;;;;;;;9.54;100.00;102407.13;6173875;28;20225;-69
2024/01/30 12:59:07;;;;;;;12.17;8.17;;;;;;;9.61;100.00;102411.19;6186086;28;20241;-69
2024/01/30 13:02:34;;;;;;;9.63;8.17;;;;;;;9.72;100.00;102401.59;6159835;28;20596;-68
2024/01/30 13:05:56;;;;;;;9.37;8.03;;;;;;;9.76;100.00;102406.69;6173195;28;20238;-69
2024/01/30 13:09:16;;;;;;;9.50;8.50;;;;;;;9.78;100.00;102402.06;6187646;28;20328;-69
2024/01/30 13:12:38;;;;;;;8.57;7.30;;;;;;;9.76;100.00;102408.50;6174645;28;20258;-69
2024/01/30 13:15:59;;;;;;;8.10;7.40;;;;;;;9.75;100.00;102420.22;6170110;28;20222;-69
2024/01/30 13:19:21;;;;;;;9.37;7.50;;;;;;;9.76;100.00;102408.50;6188759;28;20225;-69
2024/01/30 13:22:42;;;;;;;10.03;8.27;;;;;;;9.77;100.00;102408.41;6178108;28;20225;-70
2024/01/30 13:26:03;;;;;;;11.40;7.13;;;;;;;9.76;100.00;102406.69;6184200;28;20229;-69
2024/01/30 13:29:25;;;;;;;8.60;7.70;;;;;;;9.79;100.00;102413.69;6175321;28;20624;-68
2024/01/30 13:32:46;;;;;;;9.40;7.57;;;;;;;9.79;100.00;102406.50;6174474;28;20261;-69
2024/01/30 13:36:08;;;;;;;14.67;9.13;;;;;;;9.78;100.00;102410.16;6174758;28;20245;-69
2024/01/30 13:39:29;;;;;;;12.03;7.53;;;;;;;9.81;100.00;102398.31;6191509;28;20306;-69
2024/01/30 13:42:50;;;;;;;8.47;7.67;;;;;;;9.81;100.00;102401.88;6177485;28;20230;-72
2024/01/30 13:46:12;;;;;;;8.67;7.73;;;;;;;9.80;100.00;102404.66;6175608;28;20238;-68
2024/01/30 13:49:33;;;;;;;8.57;7.67;;;;;;;9.84;100.00;102398.13;6178274;28;20296;-70
2024/01/30 13:52:55;;;;;;;8.67;7.30;;;;;;;9.84;100.00;102404.38;6173535;28;20238;-69
2024/01/30 13:56:16;;;;;;;9.30;7.97;;;;;;;9.87;100.00;102403.31;6185501;28;20233;-69
2024/01/30 13:59:38;;;;;;;9.93;7.73;;;;;;;9.90;100.00;102401.31;6192484;28;20237;-70
2024/01/30 14:02:59;;;;;;;9.60;7.67;;;;;;;9.90;100.00;102395.94;6160056;28;20226;-69
2024/01/30 14:06:20;;;;;;;8.33;7.53;;;;;;;9.98;100.00;102395.44;6178479;28;20604;-69
2024/01/30 14:09:42;;;;;;;11.13;7.63;;;;;;;9.97;100.00;102394.56;6174299;28;20237;-69
2024/01/30 14:13:04;;;;;;;11.13;7.80;;;;;;;9.98;100.00;102385.53;6177636;28;20246;-69
2024/01/30 14:16:25;;;;;;;12.27;7.70;;;;;;;9.98;100.00;102380.16;6171598;28;20230;-70
2024/01/30 14:19:45;;;;;;;8.73;7.83;;;;;;;10.00;100.00;102386.31;6192254;28;20261;-69
2024/01/30 14:23:06;;;;;;;10.47;7.83;;;;;;;10.03;100.00;102377.19;6172559;28;20225;-69
2024/01/30 14:26:29;;;;;;;7.97;7.17;;;;;;;10.06;100.00;102383.22;6173043;28;20242;-69
2024/01/30 14:29:49;;;;;;;9.30;6.73;;;;;;;10.07;100.00;102368.81;6186614;28;20593;-69
2024/01/30 14:33:11;;;;;;;9.10;7.73;;;;;;;10.09;100.00;102371.41;6178390;28;20229;-69
2024/01/30 14:36:32;;;;;;;10.60;7.77;;;;;;;10.08;100.00;102372.34;6176088;28;20234;-69
2024/01/30 14:39:54;;;;;;;7.97;7.17;;;;;;;10.08;100.00;102365.13;6186763;28;20242;-69
2024/01/30 14:43:16;;;;;;;12.60;8.00;;;;;;;10.09;100.00;102374.09;6175110;28;20233;-69
2024/01/30 14:46:38;;;;;;;12.43;8.13;;;;;;;10.11;100.00;102377.59;6167862;28;20237;-69
2024/01/30 14:49:58;;;;;;;8.50;7.67;;;;;;;10.12;100.00;102372.09;6178468;28;20246;-69
2024/01/30 14:53:19;;;;;;;15.67;8.33;;;;;;;10.13;100.00;102363.06;6174423;28;20604;-69
2024/01/30 14:56:40;;;;;;;10.50;8.33;;;;;;;10.15;100.00;102373.75;6179731;28;20328;-69
2024/01/30 15:00:04;;;;;;;12.17;8.70;;;;;;;10.14;100.00;102382.78;6188643;28;20226;-68
2024/01/30 15:03:25;;;;;;;8.73;7.30;;;;;;;10.13;100.00;102379.25;6178503;28;20323;-70
2024/01/30 15:06:48;;;;;;;9.10;7.40;;;;;;;10.19;100.00;102375.28;6171290;28;20678;-69
2024/01/30 15:10:09;;;;;;;13.53;7.77;;;;;;;10.14;100.00;102380.06;6176878;28;20242;-69
2024/01/30 15:13:30;;;;;;;8.73;7.30;;;;;;;10.18;100.00;102371.72;6177071;28;20233;-69
2024/01/30 15:16:53;;;;;;;8.93;8.03;;;;;;;10.19;100.00;102369.88;6169632;28;20359;-69
2024/01/30 15:20:15;;;;;;;7.13;6.43;;;;;;;10.24;100.00;102379.41;6176437;28;20255;-69
2024/01/30 15:23:37;;;;;;;8.57;6.57;;;;;;;10.26;100.00;102384.72;6167897;28;20237;-71
2024/01/30 15:26:58;;;;;;;9.53;7.47;;;;;;;10.25;100.00;102377.59;6172223;28;20229;-69
2024/01/30 15:30:19;;;;;;;9.90;8.27;;;;;;;10.31;100.00;102387.97;6179184;28;20606;-69
2024/01/30 15:33:42;;;;;;;10.17;7.57;;;;;;;10.33;100.00;102394.13;6176939;28;20265;-70